sensor_id;sensor_type;location;lat;lon;timestamp;P1;durP1;ratioP1;P2;durP2;ratioP2
25069;SDS011;13064;48.162;11.536;2023-04-03T00:01:07;10.15;;;6.95;;
25069;SDS011;13064;48.162;11.536;2023-04-03T00:03:35;10.02;;;6.50;;
25069;SDS011;13064;48.162;11.536;2023-04-03T00:06:03;9.02;;;6.03;;
25069;SDS011;13064;48.162;11.536;2023-04-03T00:08:33;10.02;;;6.05;;
25069;SDS011;13064;48.162;11.536;2023-04-03T00:11:01;8.70;;;5.70;;
25069;SDS011;13064;48.162;11.536;2023-04-03T00:13:28;9.65;;;6.05;;
25069;SDS011;13064;48.162;11.536;2023-04-03T00:15:57;7.97;;;5.72;;
25069;SDS011;13064;48.162;11.536;2023-04-03T00:18:24;7.50;;;5.80;;
25069;SDS011;13064;48.162;11.536;2023-04-03T00:20:52;8.93;;;6.10;;
25069;SDS011;13064;48.162;11.536;2023-04-03T00:23:19;8.63;;;5.68;;
25069;SDS011;13064;48.162;11.536;2023-04-03T00:25:47;8.18;;;6.10;;
25069;SDS011;13064;48.162;11.536;2023-04-03T00:28:14;7.82;;;5.82;;
25069;SDS011;13064;48.162;11.536;2023-04-03T00:30:42;9.02;;;5.97;;
25069;SDS011;13064;48.162;11.536;2023-04-03T00:33:13;8.55;;;6.32;;
25069;SDS011;13064;48.162;11.536;2023-04-03T00:35:41;8.40;;;5.38;;
25069;SDS011;13064;48.162;11.536;2023-04-03T00:38:09;8.57;;;6.07;;
25069;SDS011;13064;48.162;11.536;2023-04-03T00:40:37;9.05;;;5.28;;
25069;SDS011;13064;48.162;11.536;2023-04-03T00:43:10;8.07;;;5.35;;
25069;SDS011;13064;48.162;11.536;2023-04-03T00:45:40;6.28;;;5.07;;
25069;SDS011;13064;48.162;11.536;2023-04-03T00:48:10;7.57;;;5.75;;
25069;SDS011;13064;48.162;11.536;2023-04-03T00:50:39;6.97;;;5.57;;
25069;SDS011;13064;48.162;11.536;2023-04-03T00:53:09;7.32;;;5.57;;
25069;SDS011;13064;48.162;11.536;2023-04-03T00:55:38;7.35;;;5.45;;
25069;SDS011;13064;48.162;11.536;2023-04-03T00:58:06;8.02;;;5.53;;
25069;SDS011;13064;48.162;11.536;2023-04-03T01:00:35;7.68;;;6.00;;
25069;SDS011;13064;48.162;11.536;2023-04-03T01:03:04;10.40;;;5.85;;
25069;SDS011;13064;48.162;11.536;2023-04-03T01:05:32;10.55;;;6.15;;
25069;SDS011;13064;48.162;11.536;2023-04-03T01:08:00;9.35;;;5.18;;
25069;SDS011;13064;48.162;11.536;2023-04-03T01:10:28;9.45;;;5.38;;
25069;SDS011;13064;48.162;11.536;2023-04-03T01:12:57;8.23;;;5.43;;
25069;SDS011;13064;48.162;11.536;2023-04-03T01:15:25;7.18;;;5.25;;
25069;SDS011;13064;48.162;11.536;2023-04-03T01:17:57;8.37;;;5.80;;
25069;SDS011;13064;48.162;11.536;2023-04-03T01:25:46;9.45;;;5.93;;
25069;SDS011;13064;48.162;11.536;2023-04-03T01:28:15;9.45;;;5.65;;
25069;SDS011;13064;48.162;11.536;2023-04-03T01:33:11;7.85;;;5.40;;
25069;SDS011;13064;48.162;11.536;2023-04-03T01:35:39;7.50;;;5.57;;
25069;SDS011;13064;48.162;11.536;2023-04-03T01:38:07;7.90;;;5.45;;
25069;SDS011;13064;48.162;11.536;2023-04-03T01:40:34;9.57;;;6.30;;
25069;SDS011;13064;48.162;11.536;2023-04-03T01:43:02;7.45;;;5.43;;
25069;SDS011;13064;48.162;11.536;2023-04-03T01:45:30;7.47;;;5.35;;
25069;SDS011;13064;48.162;11.536;2023-04-03T01:47:58;7.53;;;5.07;;
25069;SDS011;13064;48.162;11.536;2023-04-03T01:50:26;7.20;;;5.28;;
25069;SDS011;13064;48.162;11.536;2023-04-03T01:52:53;6.50;;;4.88;;
25069;SDS011;13064;48.162;11.536;2023-04-03T01:55:21;7.90;;;5.97;;
25069;SDS011;13064;48.162;11.536;2023-04-03T01:57:49;7.90;;;5.43;;
25069;SDS011;13064;48.162;11.536;2023-04-03T02:00:16;7.53;;;4.80;;
25069;SDS011;13064;48.162;11.536;2023-04-03T02:02:44;9.68;;;5.03;;
25069;SDS011;13064;48.162;11.536;2023-04-03T02:05:13;7.57;;;5.00;;
25069;SDS011;13064;48.162;11.536;2023-04-03T02:07:41;12.20;;;5.15;;
25069;SDS011;13064;48.162;11.536;2023-04-03T02:10:08;7.10;;;5.65;;
25069;SDS011;13064;48.162;11.536;2023-04-03T02:12:36;6.47;;;5.00;;
25069;SDS011;13064;48.162;11.536;2023-04-03T02:15:04;10.68;;;5.22;;
25069;SDS011;13064;48.162;11.536;2023-04-03T02:17:31;7.38;;;5.20;;
25069;SDS011;13064;48.162;11.536;2023-04-03T02:19:59;6.25;;;5.13;;
25069;SDS011;13064;48.162;11.536;2023-04-03T02:22:27;7.70;;;4.45;;
25069;SDS011;13064;48.162;11.536;2023-04-03T02:24:54;6.43;;;4.75;;
25069;SDS011;13064;48.162;11.536;2023-04-03T02:27:22;6.95;;;4.78;;
25069;SDS011;13064;48.162;11.536;2023-04-03T02:29:50;7.97;;;4.65;;
25069;SDS011;13064;48.162;11.536;2023-04-03T02:32:18;6.32;;;4.90;;
25069;SDS011;13064;48.162;11.536;2023-04-03T02:34:47;4.70;;;4.10;;
25069;SDS011;13064;48.162;11.536;2023-04-03T02:37:15;7.03;;;4.68;;
25069;SDS011;13064;48.162;11.536;2023-04-03T02:39:45;6.20;;;4.32;;
25069;SDS011;13064;48.162;11.536;2023-04-03T02:42:13;5.50;;;4.78;;
25069;SDS011;13064;48.162;11.536;2023-04-03T02:44:41;5.72;;;4.13;;
25069;SDS011;13064;48.162;11.536;2023-04-03T02:47:09;5.78;;;4.40;;
25069;SDS011;13064;48.162;11.536;2023-04-03T02:49:37;6.22;;;4.70;;
25069;SDS011;13064;48.162;11.536;2023-04-03T02:52:04;5.63;;;3.67;;
25069;SDS011;13064;48.162;11.536;2023-04-03T02:54:32;6.65;;;4.10;;
25069;SDS011;13064;48.162;11.536;2023-04-03T02:57:03;6.93;;;4.10;;
25069;SDS011;13064;48.162;11.536;2023-04-03T02:59:30;8.75;;;4.40;;
25069;SDS011;13064;48.162;11.536;2023-04-03T03:01:58;7.88;;;3.85;;
25069;SDS011;13064;48.162;11.536;2023-04-03T03:04:26;4.97;;;3.83;;
25069;SDS011;13064;48.162;11.536;2023-04-03T03:06:53;5.95;;;3.80;;
25069;SDS011;13064;48.162;11.536;2023-04-03T03:09:21;4.65;;;3.50;;
25069;SDS011;13064;48.162;11.536;2023-04-03T03:11:49;5.95;;;3.92;;
25069;SDS011;13064;48.162;11.536;2023-04-03T03:14:16;4.47;;;3.67;;
25069;SDS011;13064;48.162;11.536;2023-04-03T03:16:44;5.65;;;3.67;;
25069;SDS011;13064;48.162;11.536;2023-04-03T03:19:11;5.25;;;3.80;;
25069;SDS011;13064;48.162;11.536;2023-04-03T03:21:39;6.43;;;4.03;;
25069;SDS011;13064;48.162;11.536;2023-04-03T03:24:07;4.70;;;3.53;;
25069;SDS011;13064;48.162;11.536;2023-04-03T03:26:34;4.50;;;3.53;;
25069;SDS011;13064;48.162;11.536;2023-04-03T03:29:03;4.82;;;3.05;;
25069;SDS011;13064;48.162;11.536;2023-04-03T03:31:31;5.35;;;3.50;;
25069;SDS011;13064;48.162;11.536;2023-04-03T03:33:59;5.78;;;3.90;;
25069;SDS011;13064;48.162;11.536;2023-04-03T03:36:26;4.10;;;3.50;;
25069;SDS011;13064;48.162;11.536;2023-04-03T03:38:54;4.25;;;3.20;;
25069;SDS011;13064;48.162;11.536;2023-04-03T03:41:23;5.55;;;3.75;;
25069;SDS011;13064;48.162;11.536;2023-04-03T03:43:50;4.90;;;3.33;;
25069;SDS011;13064;48.162;11.536;2023-04-03T03:46:18;4.93;;;3.00;;
25069;SDS011;13064;48.162;11.536;2023-04-03T03:48:46;5.38;;;3.45;;
25069;SDS011;13064;48.162;11.536;2023-04-03T03:51:14;5.07;;;3.75;;
25069;SDS011;13064;48.162;11.536;2023-04-03T03:53:43;5.43;;;3.30;;
25069;SDS011;13064;48.162;11.536;2023-04-03T03:56:13;5.10;;;3.40;;
25069;SDS011;13064;48.162;11.536;2023-04-03T03:58:42;4.65;;;3.20;;
25069;SDS011;13064;48.162;11.536;2023-04-03T04:01:09;6.93;;;3.53;;
25069;SDS011;13064;48.162;11.536;2023-04-03T04:03:42;4.57;;;3.08;;
25069;SDS011;13064;48.162;11.536;2023-04-03T04:06:12;5.18;;;3.20;;
25069;SDS011;13064;48.162;11.536;2023-04-03T04:08:40;4.15;;;3.45;;
25069;SDS011;13064;48.162;11.536;2023-04-03T04:11:10;4.70;;;3.45;;
25069;SDS011;13064;48.162;11.536;2023-04-03T04:13:39;5.38;;;3.25;;
25069;SDS011;13064;48.162;11.536;2023-04-03T04:16:08;3.90;;;3.33;;
25069;SDS011;13064;48.162;11.536;2023-04-03T04:18:37;4.35;;;2.90;;
25069;SDS011;13064;48.162;11.536;2023-04-03T04:21:05;3.78;;;2.90;;
25069;SDS011;13064;48.162;11.536;2023-04-03T04:23:32;5.50;;;3.47;;
25069;SDS011;13064;48.162;11.536;2023-04-03T04:26:00;4.57;;;3.15;;
25069;SDS011;13064;48.162;11.536;2023-04-03T04:28:32;4.45;;;3.20;;
25069;SDS011;13064;48.162;11.536;2023-04-03T04:31:01;5.18;;;3.38;;
25069;SDS011;13064;48.162;11.536;2023-04-03T04:33:30;6.75;;;3.60;;
25069;SDS011;13064;48.162;11.536;2023-04-03T04:36:01;8.52;;;3.65;;
25069;SDS011;13064;48.162;11.536;2023-04-03T04:38:29;3.58;;;3.05;;
25069;SDS011;13064;48.162;11.536;2023-04-03T04:40:56;4.40;;;3.28;;
25069;SDS011;13064;48.162;11.536;2023-04-03T04:43:24;6.32;;;3.10;;
25069;SDS011;13064;48.162;11.536;2023-04-03T04:46:00;3.83;;;3.10;;
25069;SDS011;13064;48.162;11.536;2023-04-03T04:48:30;4.38;;;3.22;;
25069;SDS011;13064;48.162;11.536;2023-04-03T04:50:58;4.93;;;3.08;;
25069;SDS011;13064;48.162;11.536;2023-04-03T04:53:26;5.72;;;3.42;;
25069;SDS011;13064;48.162;11.536;2023-04-03T04:55:54;4.13;;;3.40;;
25069;SDS011;13064;48.162;11.536;2023-04-03T04:58:22;3.83;;;2.80;;
25069;SDS011;13064;48.162;11.536;2023-04-03T05:00:57;4.93;;;3.40;;
25069;SDS011;13064;48.162;11.536;2023-04-03T05:03:25;4.43;;;3.58;;
25069;SDS011;13064;48.162;11.536;2023-04-03T05:05:53;4.05;;;3.25;;
25069;SDS011;13064;48.162;11.536;2023-04-03T05:08:21;3.20;;;2.83;;
25069;SDS011;13064;48.162;11.536;2023-04-03T05:10:48;5.13;;;3.40;;
25069;SDS011;13064;48.162;11.536;2023-04-03T05:13:17;5.43;;;3.35;;
25069;SDS011;13064;48.162;11.536;2023-04-03T05:15:45;3.97;;;2.85;;
25069;SDS011;13064;48.162;11.536;2023-04-03T05:18:14;5.38;;;3.38;;
25069;SDS011;13064;48.162;11.536;2023-04-03T05:20:41;5.00;;;3.55;;
25069;SDS011;13064;48.162;11.536;2023-04-03T05:23:10;5.85;;;3.28;;
25069;SDS011;13064;48.162;11.536;2023-04-03T05:25:39;3.90;;;2.92;;
25069;SDS011;13064;48.162;11.536;2023-04-03T05:28:08;6.35;;;3.50;;
25069;SDS011;13064;48.162;11.536;2023-04-03T05:30:36;4.93;;;3.30;;
25069;SDS011;13064;48.162;11.536;2023-04-03T05:33:04;4.80;;;3.33;;
25069;SDS011;13064;48.162;11.536;2023-04-03T05:35:39;4.22;;;3.30;;
25069;SDS011;13064;48.162;11.536;2023-04-03T05:38:10;5.57;;;3.80;;
25069;SDS011;13064;48.162;11.536;2023-04-03T05:40:38;4.85;;;3.47;;
25069;SDS011;13064;48.162;11.536;2023-04-03T05:43:06;6.30;;;3.30;;
25069;SDS011;13064;48.162;11.536;2023-04-03T05:45:37;5.38;;;3.40;;
25069;SDS011;13064;48.162;11.536;2023-04-03T05:48:05;4.13;;;3.03;;
25069;SDS011;13064;48.162;11.536;2023-04-03T05:50:33;5.70;;;3.03;;
25069;SDS011;13064;48.162;11.536;2023-04-03T05:53:01;6.60;;;3.70;;
25069;SDS011;13064;48.162;11.536;2023-04-03T05:55:31;4.85;;;3.22;;
25069;SDS011;13064;48.162;11.536;2023-04-03T05:57:59;9.02;;;3.92;;
25069;SDS011;13064;48.162;11.536;2023-04-03T06:00:27;5.43;;;3.60;;
25069;SDS011;13064;48.162;11.536;2023-04-03T06:03:00;7.05;;;3.95;;
25069;SDS011;13064;48.162;11.536;2023-04-03T06:05:28;4.97;;;3.20;;
25069;SDS011;13064;48.162;11.536;2023-04-03T06:07:56;5.57;;;3.65;;
25069;SDS011;13064;48.162;11.536;2023-04-03T06:10:26;5.10;;;3.30;;
25069;SDS011;13064;48.162;11.536;2023-04-03T06:12:53;6.78;;;3.40;;
25069;SDS011;13064;48.162;11.536;2023-04-03T06:15:22;9.35;;;4.07;;
25069;SDS011;13064;48.162;11.536;2023-04-03T06:17:50;6.97;;;3.90;;
25069;SDS011;13064;48.162;11.536;2023-04-03T06:20:18;5.18;;;3.97;;
25069;SDS011;13064;48.162;11.536;2023-04-03T06:22:45;10.93;;;3.72;;
25069;SDS011;13064;48.162;11.536;2023-04-03T06:25:13;6.97;;;3.88;;
25069;SDS011;13064;48.162;11.536;2023-04-03T06:27:41;5.25;;;3.55;;
25069;SDS011;13064;48.162;11.536;2023-04-03T06:30:08;8.63;;;4.10;;
25069;SDS011;13064;48.162;11.536;2023-04-03T06:32:40;6.32;;;3.70;;
25069;SDS011;13064;48.162;11.536;2023-04-03T06:35:33;8.93;;;4.07;;
25069;SDS011;13064;48.162;11.536;2023-04-03T06:38:02;4.93;;;3.38;;
25069;SDS011;13064;48.162;11.536;2023-04-03T06:40:34;4.75;;;3.38;;
25069;SDS011;13064;48.162;11.536;2023-04-03T06:43:03;6.25;;;3.60;;
25069;SDS011;13064;48.162;11.536;2023-04-03T06:45:31;6.30;;;3.70;;
25069;SDS011;13064;48.162;11.536;2023-04-03T06:47:59;6.25;;;4.03;;
25069;SDS011;13064;48.162;11.536;2023-04-03T06:50:27;5.00;;;3.40;;
25069;SDS011;13064;48.162;11.536;2023-04-03T06:52:54;6.50;;;3.85;;
25069;SDS011;13064;48.162;11.536;2023-04-03T06:55:22;4.72;;;3.47;;
25069;SDS011;13064;48.162;11.536;2023-04-03T06:57:50;5.70;;;3.45;;
25069;SDS011;13064;48.162;11.536;2023-04-03T07:00:17;5.93;;;3.67;;
25069;SDS011;13064;48.162;11.536;2023-04-03T07:02:45;5.13;;;3.53;;
25069;SDS011;13064;48.162;11.536;2023-04-03T07:05:13;4.90;;;3.45;;
25069;SDS011;13064;48.162;11.536;2023-04-03T07:07:41;4.72;;;3.60;;
25069;SDS011;13064;48.162;11.536;2023-04-03T07:10:09;4.65;;;3.35;;
25069;SDS011;13064;48.162;11.536;2023-04-03T07:12:37;4.75;;;3.60;;
25069;SDS011;13064;48.162;11.536;2023-04-03T07:15:05;4.30;;;3.30;;
25069;SDS011;13064;48.162;11.536;2023-04-03T07:17:33;5.85;;;3.45;;
25069;SDS011;13064;48.162;11.536;2023-04-03T07:20:02;4.45;;;3.42;;
25069;SDS011;13064;48.162;11.536;2023-04-03T07:22:30;3.63;;;2.90;;
25069;SDS011;13064;48.162;11.536;2023-04-03T07:24:58;4.68;;;3.15;;
25069;SDS011;13064;48.162;11.536;2023-04-03T07:27:26;4.93;;;3.35;;
25069;SDS011;13064;48.162;11.536;2023-04-03T07:29:54;7.28;;;3.75;;
25069;SDS011;13064;48.162;11.536;2023-04-03T07:32:22;7.13;;;3.53;;
25069;SDS011;13064;48.162;11.536;2023-04-03T07:34:50;7.30;;;3.50;;
25069;SDS011;13064;48.162;11.536;2023-04-03T07:37:18;5.53;;;3.50;;
25069;SDS011;13064;48.162;11.536;2023-04-03T07:39:45;7.43;;;3.40;;
25069;SDS011;13064;48.162;11.536;2023-04-03T07:42:13;5.38;;;3.83;;
25069;SDS011;13064;48.162;11.536;2023-04-03T07:44:41;5.28;;;3.80;;
25069;SDS011;13064;48.162;11.536;2023-04-03T07:47:09;7.03;;;3.88;;
25069;SDS011;13064;48.162;11.536;2023-04-03T07:49:37;5.30;;;3.75;;
25069;SDS011;13064;48.162;11.536;2023-04-03T07:52:06;5.85;;;3.72;;
25069;SDS011;13064;48.162;11.536;2023-04-03T07:54:35;7.10;;;3.67;;
25069;SDS011;13064;48.162;11.536;2023-04-03T07:57:03;5.53;;;3.63;;
25069;SDS011;13064;48.162;11.536;2023-04-03T07:59:31;5.78;;;3.72;;
25069;SDS011;13064;48.162;11.536;2023-04-03T08:01:59;11.18;;;4.15;;
25069;SDS011;13064;48.162;11.536;2023-04-03T08:04:27;6.70;;;3.65;;
25069;SDS011;13064;48.162;11.536;2023-04-03T08:06:54;5.60;;;3.85;;
25069;SDS011;13064;48.162;11.536;2023-04-03T08:09:22;4.85;;;4.20;;
25069;SDS011;13064;48.162;11.536;2023-04-03T08:11:49;6.78;;;3.72;;
25069;SDS011;13064;48.162;11.536;2023-04-03T08:14:20;6.15;;;4.10;;
25069;SDS011;13064;48.162;11.536;2023-04-03T08:16:47;5.13;;;4.05;;
25069;SDS011;13064;48.162;11.536;2023-04-03T08:19:16;5.25;;;3.97;;
25069;SDS011;13064;48.162;11.536;2023-04-03T08:21:52;5.22;;;4.18;;
25069;SDS011;13064;48.162;11.536;2023-04-03T08:24:20;6.40;;;3.92;;
25069;SDS011;13064;48.162;11.536;2023-04-03T08:26:48;6.60;;;4.05;;
25069;SDS011;13064;48.162;11.536;2023-04-03T08:29:16;6.68;;;4.00;;
25069;SDS011;13064;48.162;11.536;2023-04-03T08:31:44;7.22;;;3.60;;
25069;SDS011;13064;48.162;11.536;2023-04-03T08:34:12;8.02;;;4.40;;
25069;SDS011;13064;48.162;11.536;2023-04-03T08:36:40;8.73;;;4.40;;
25069;SDS011;13064;48.162;11.536;2023-04-03T08:39:08;5.18;;;3.75;;
25069;SDS011;13064;48.162;11.536;2023-04-03T08:41:37;5.65;;;3.67;;
25069;SDS011;13064;48.162;11.536;2023-04-03T08:46:40;5.32;;;3.70;;
25069;SDS011;13064;48.162;11.536;2023-04-03T08:49:21;5.70;;;3.75;;
25069;SDS011;13064;48.162;11.536;2023-04-03T08:51:50;8.27;;;3.90;;
25069;SDS011;13064;48.162;11.536;2023-04-03T08:54:28;5.40;;;3.85;;
25069;SDS011;13064;48.162;11.536;2023-04-03T08:56:59;7.25;;;3.80;;
25069;SDS011;13064;48.162;11.536;2023-04-03T08:59:29;5.15;;;3.22;;
25069;SDS011;13064;48.162;11.536;2023-04-03T09:01:58;7.40;;;4.05;;
25069;SDS011;13064;48.162;11.536;2023-04-03T09:04:28;10.27;;;3.95;;
25069;SDS011;13064;48.162;11.536;2023-04-03T09:07:02;8.20;;;4.15;;
25069;SDS011;13064;48.162;11.536;2023-04-03T09:09:40;9.25;;;3.95;;
25069;SDS011;13064;48.162;11.536;2023-04-03T09:17:20;6.57;;;3.75;;
25069;SDS011;13064;48.162;11.536;2023-04-03T09:22:23;7.07;;;3.63;;
25069;SDS011;13064;48.162;11.536;2023-04-03T09:24:59;7.25;;;3.53;;
25069;SDS011;13064;48.162;11.536;2023-04-03T09:27:27;6.72;;;3.60;;
25069;SDS011;13064;48.162;11.536;2023-04-03T09:29:56;7.75;;;3.90;;
25069;SDS011;13064;48.162;11.536;2023-04-03T09:32:30;7.50;;;4.20;;
25069;SDS011;13064;48.162;11.536;2023-04-03T09:35:02;6.43;;;3.60;;
25069;SDS011;13064;48.162;11.536;2023-04-03T09:37:47;6.75;;;4.05;;
25069;SDS011;13064;48.162;11.536;2023-04-03T09:42:57;4.97;;;3.53;;
25069;SDS011;13064;48.162;11.536;2023-04-03T09:45:31;6.25;;;3.40;;
25069;SDS011;13064;48.162;11.536;2023-04-03T09:48:15;7.53;;;3.70;;
25069;SDS011;13064;48.162;11.536;2023-04-03T09:53:27;6.75;;;3.75;;
25069;SDS011;13064;48.162;11.536;2023-04-03T09:55:55;9.48;;;3.97;;
25069;SDS011;13064;48.162;11.536;2023-04-03T09:58:27;6.72;;;3.53;;
25069;SDS011;13064;48.162;11.536;2023-04-03T10:01:31;4.85;;;2.90;;
25069;SDS011;13064;48.162;11.536;2023-04-03T10:04:12;5.90;;;3.53;;
25069;SDS011;13064;48.162;11.536;2023-04-03T10:06:42;6.07;;;3.67;;
25069;SDS011;13064;48.162;11.536;2023-04-03T10:09:26;8.45;;;3.60;;
25069;SDS011;13064;48.162;11.536;2023-04-03T10:11:58;4.90;;;3.72;;
25069;SDS011;13064;48.162;11.536;2023-04-03T10:14:28;8.73;;;3.75;;
25069;SDS011;13064;48.162;11.536;2023-04-03T10:16:59;5.75;;;3.60;;
25069;SDS011;13064;48.162;11.536;2023-04-03T10:19:41;5.90;;;3.75;;
25069;SDS011;13064;48.162;11.536;2023-04-03T10:33:11;6.18;;;3.15;;
25069;SDS011;13064;48.162;11.536;2023-04-03T10:40:47;5.45;;;2.97;;
25069;SDS011;13064;48.162;11.536;2023-04-03T10:46:08;5.90;;;3.08;;
25069;SDS011;13064;48.162;11.536;2023-04-03T10:48:47;5.63;;;3.00;;
25069;SDS011;13064;48.162;11.536;2023-04-03T10:58:49;4.18;;;2.35;;
25069;SDS011;13064;48.162;11.536;2023-04-03T11:01:21;4.45;;;2.53;;
25069;SDS011;13064;48.162;11.536;2023-04-03T11:03:51;5.82;;;2.90;;
25069;SDS011;13064;48.162;11.536;2023-04-03T11:06:21;5.75;;;2.40;;
25069;SDS011;13064;48.162;11.536;2023-04-03T11:08:52;6.05;;;2.45;;
25069;SDS011;13064;48.162;11.536;2023-04-03T11:11:30;6.40;;;2.40;;
25069;SDS011;13064;48.162;11.536;2023-04-03T11:14:03;6.20;;;2.50;;
25069;SDS011;13064;48.162;11.536;2023-04-03T11:16:33;6.00;;;2.83;;
25069;SDS011;13064;48.162;11.536;2023-04-03T11:21:56;5.90;;;2.80;;
25069;SDS011;13064;48.162;11.536;2023-04-03T11:24:26;6.35;;;2.47;;
25069;SDS011;13064;48.162;11.536;2023-04-03T11:26:55;6.28;;;2.60;;
25069;SDS011;13064;48.162;11.536;2023-04-03T11:29:24;4.68;;;2.40;;
25069;SDS011;13064;48.162;11.536;2023-04-03T11:34:48;7.18;;;3.00;;
25069;SDS011;13064;48.162;11.536;2023-04-03T11:37:27;5.55;;;2.63;;
25069;SDS011;13064;48.162;11.536;2023-04-03T11:39:56;6.53;;;2.80;;
25069;SDS011;13064;48.162;11.536;2023-04-03T11:42:36;4.78;;;2.40;;
25069;SDS011;13064;48.162;11.536;2023-04-03T11:48:03;8.50;;;2.35;;
25069;SDS011;13064;48.162;11.536;2023-04-03T11:50:49;3.05;;;2.22;;
25069;SDS011;13064;48.162;11.536;2023-04-03T11:58:18;4.55;;;2.38;;
25069;SDS011;13064;48.162;11.536;2023-04-03T12:00:47;3.75;;;2.08;;
25069;SDS011;13064;48.162;11.536;2023-04-03T12:08:30;3.53;;;1.80;;
25069;SDS011;13064;48.162;11.536;2023-04-03T12:13:39;3.53;;;1.73;;
25069;SDS011;13064;48.162;11.536;2023-04-03T12:16:18;4.07;;;1.60;;
25069;SDS011;13064;48.162;11.536;2023-04-03T12:42:49;2.90;;;1.25;;
25069;SDS011;13064;48.162;11.536;2023-04-03T12:45:23;2.25;;;1.50;;
25069;SDS011;13064;48.162;11.536;2023-04-03T12:47:52;2.45;;;1.52;;
25069;SDS011;13064;48.162;11.536;2023-04-03T12:50:22;1.98;;;1.48;;
25069;SDS011;13064;48.162;11.536;2023-04-03T12:52:52;6.93;;;1.52;;
25069;SDS011;13064;48.162;11.536;2023-04-03T12:55:22;2.22;;;1.50;;
25069;SDS011;13064;48.162;11.536;2023-04-03T12:57:49;5.20;;;1.50;;
25069;SDS011;13064;48.162;11.536;2023-04-03T13:00:21;3.03;;;1.55;;
25069;SDS011;13064;48.162;11.536;2023-04-03T13:02:49;4.43;;;1.65;;
25069;SDS011;13064;48.162;11.536;2023-04-03T13:05:18;2.10;;;1.38;;
25069;SDS011;13064;48.162;11.536;2023-04-03T13:07:55;4.47;;;1.80;;
25069;SDS011;13064;48.162;11.536;2023-04-03T13:10:23;2.38;;;1.70;;
25069;SDS011;13064;48.162;11.536;2023-04-03T13:12:53;2.63;;;1.80;;
25069;SDS011;13064;48.162;11.536;2023-04-03T13:15:22;3.78;;;1.60;;
25069;SDS011;13064;48.162;11.536;2023-04-03T13:17:52;2.00;;;1.55;;
25069;SDS011;13064;48.162;11.536;2023-04-03T13:22:50;3.70;;;2.03;;
25069;SDS011;13064;48.162;11.536;2023-04-03T13:25:19;4.97;;;1.50;;
25069;SDS011;13064;48.162;11.536;2023-04-03T13:27:48;2.33;;;1.58;;
25069;SDS011;13064;48.162;11.536;2023-04-03T13:30:29;4.93;;;1.42;;
25069;SDS011;13064;48.162;11.536;2023-04-03T13:32:59;2.67;;;1.33;;
25069;SDS011;13064;48.162;11.536;2023-04-03T13:35:35;3.38;;;1.40;;
25069;SDS011;13064;48.162;11.536;2023-04-03T13:38:05;2.00;;;1.50;;
25069;SDS011;13064;48.162;11.536;2023-04-03T13:40:33;3.60;;;1.50;;
25069;SDS011;13064;48.162;11.536;2023-04-03T13:43:17;4.22;;;1.38;;
25069;SDS011;13064;48.162;11.536;2023-04-03T13:46:02;2.40;;;1.60;;
25069;SDS011;13064;48.162;11.536;2023-04-03T13:48:40;3.20;;;1.70;;
25069;SDS011;13064;48.162;11.536;2023-04-03T13:53:41;5.40;;;1.63;;
25069;SDS011;13064;48.162;11.536;2023-04-03T13:56:16;2.45;;;1.30;;
25069;SDS011;13064;48.162;11.536;2023-04-03T13:58:56;3.45;;;1.65;;
25069;SDS011;13064;48.162;11.536;2023-04-03T14:01:24;2.03;;;1.33;;
25069;SDS011;13064;48.162;11.536;2023-04-03T14:06:19;3.50;;;1.75;;
25069;SDS011;13064;48.162;11.536;2023-04-03T14:08:48;2.63;;;1.52;;
25069;SDS011;13064;48.162;11.536;2023-04-03T14:11:17;2.50;;;1.20;;
25069;SDS011;13064;48.162;11.536;2023-04-03T14:13:47;2.22;;;1.40;;
25069;SDS011;13064;48.162;11.536;2023-04-03T14:16:21;7.72;;;1.55;;
25069;SDS011;13064;48.162;11.536;2023-04-03T14:18:49;3.22;;;1.50;;
25069;SDS011;13064;48.162;11.536;2023-04-03T14:21:18;3.33;;;1.55;;
25069;SDS011;13064;48.162;11.536;2023-04-03T14:23:46;3.72;;;1.60;;
25069;SDS011;13064;48.162;11.536;2023-04-03T14:26:15;2.28;;;1.42;;
25069;SDS011;13064;48.162;11.536;2023-04-03T14:28:47;3.53;;;1.80;;
25069;SDS011;13064;48.162;11.536;2023-04-03T14:31:15;3.88;;;1.33;;
25069;SDS011;13064;48.162;11.536;2023-04-03T14:33:44;3.83;;;1.60;;
25069;SDS011;13064;48.162;11.536;2023-04-03T14:36:13;2.03;;;1.58;;
25069;SDS011;13064;48.162;11.536;2023-04-03T14:38:41;2.88;;;1.60;;
25069;SDS011;13064;48.162;11.536;2023-04-03T14:41:12;5.28;;;1.60;;
25069;SDS011;13064;48.162;11.536;2023-04-03T14:43:43;2.60;;;1.30;;
25069;SDS011;13064;48.162;11.536;2023-04-03T14:46:33;3.30;;;1.60;;
25069;SDS011;13064;48.162;11.536;2023-04-03T14:49:19;2.05;;;1.40;;
25069;SDS011;13064;48.162;11.536;2023-04-03T14:51:48;1.48;;;1.23;;
25069;SDS011;13064;48.162;11.536;2023-04-03T14:54:18;4.20;;;1.50;;
25069;SDS011;13064;48.162;11.536;2023-04-03T14:56:52;3.33;;;1.63;;
25069;SDS011;13064;48.162;11.536;2023-04-03T14:59:19;2.88;;;1.50;;
25069;SDS011;13064;48.162;11.536;2023-04-03T15:01:48;3.55;;;1.13;;
25069;SDS011;13064;48.162;11.536;2023-04-03T15:04:17;3.22;;;1.63;;
25069;SDS011;13064;48.162;11.536;2023-04-03T15:06:46;3.72;;;1.33;;
25069;SDS011;13064;48.162;11.536;2023-04-03T15:09:18;3.67;;;1.23;;
25069;SDS011;13064;48.162;11.536;2023-04-03T15:11:47;3.03;;;1.50;;
25069;SDS011;13064;48.162;11.536;2023-04-03T15:14:15;3.00;;;1.27;;
25069;SDS011;13064;48.162;11.536;2023-04-03T15:17:05;3.42;;;1.77;;
25069;SDS011;13064;48.162;11.536;2023-04-03T15:19:36;2.25;;;1.20;;
25069;SDS011;13064;48.162;11.536;2023-04-03T15:22:04;3.45;;;1.45;;
25069;SDS011;13064;48.162;11.536;2023-04-03T15:24:32;1.42;;;1.23;;
25069;SDS011;13064;48.162;11.536;2023-04-03T15:27:00;4.32;;;1.60;;
25069;SDS011;13064;48.162;11.536;2023-04-03T15:29:28;2.97;;;1.20;;
25069;SDS011;13064;48.162;11.536;2023-04-03T15:31:55;4.20;;;1.10;;
25069;SDS011;13064;48.162;11.536;2023-04-03T15:34:23;3.03;;;1.23;;
25069;SDS011;13064;48.162;11.536;2023-04-03T15:36:50;2.08;;;1.13;;
25069;SDS011;13064;48.162;11.536;2023-04-03T15:39:21;1.80;;;1.20;;
25069;SDS011;13064;48.162;11.536;2023-04-03T15:41:49;3.00;;;1.40;;
25069;SDS011;13064;48.162;11.536;2023-04-03T15:44:18;2.15;;;1.50;;
25069;SDS011;13064;48.162;11.536;2023-04-03T15:46:47;2.85;;;1.38;;
25069;SDS011;13064;48.162;11.536;2023-04-03T15:49:17;3.33;;;1.42;;
25069;SDS011;13064;48.162;11.536;2023-04-03T15:51:45;1.75;;;1.20;;
25069;SDS011;13064;48.162;11.536;2023-04-03T15:54:12;3.35;;;1.70;;
25069;SDS011;13064;48.162;11.536;2023-04-03T15:56:40;3.17;;;1.40;;
25069;SDS011;13064;48.162;11.536;2023-04-03T15:59:07;3.88;;;1.80;;
25069;SDS011;13064;48.162;11.536;2023-04-03T16:01:35;2.83;;;1.48;;
25069;SDS011;13064;48.162;11.536;2023-04-03T16:04:04;2.75;;;1.35;;
25069;SDS011;13064;48.162;11.536;2023-04-03T16:06:31;2.47;;;1.63;;
25069;SDS011;13064;48.162;11.536;2023-04-03T16:09:00;3.50;;;1.40;;
25069;SDS011;13064;48.162;11.536;2023-04-03T16:11:28;3.47;;;1.48;;
25069;SDS011;13064;48.162;11.536;2023-04-03T16:13:55;4.15;;;1.48;;
25069;SDS011;13064;48.162;11.536;2023-04-03T16:16:23;3.08;;;1.55;;
25069;SDS011;13064;48.162;11.536;2023-04-03T16:18:54;2.97;;;1.30;;
25069;SDS011;13064;48.162;11.536;2023-04-03T16:21:22;2.65;;;1.50;;
25069;SDS011;13064;48.162;11.536;2023-04-03T16:23:50;2.60;;;1.30;;
25069;SDS011;13064;48.162;11.536;2023-04-03T16:26:18;2.10;;;1.30;;
25069;SDS011;13064;48.162;11.536;2023-04-03T16:28:46;4.03;;;1.73;;
25069;SDS011;13064;48.162;11.536;2023-04-03T16:31:15;2.22;;;1.40;;